sensor_id;sensor_type;location;lat;lon;timestamp;P1;durP1;ratioP1;P2;durP2;ratioP2
64595;SDS011;51003;51.628;6.670;2023-04-16T00:00:20;23.57;;;8.10;;
64595;SDS011;51003;51.628;6.670;2023-04-16T00:02:46;14.00;;;8.07;;
64595;SDS011;51003;51.628;6.670;2023-04-16T00:05:12;14.57;;;6.87;;
64595;SDS011;51003;51.628;6.670;2023-04-16T00:07:38;16.83;;;7.03;;
64595;SDS011;51003;51.628;6.670;2023-04-16T00:10:05;15.23;;;7.17;;
64595;SDS011;51003;51.628;6.670;2023-04-16T00:12:31;14.23;;;7.30;;
64595;SDS011;51003;51.628;6.670;2023-04-16T00:14:56;15.53;;;6.73;;
64595;SDS011;51003;51.628;6.670;2023-04-16T00:17:22;18.53;;;8.73;;
64595;SDS011;51003;51.628;6.670;2023-04-16T00:19:47;15.63;;;7.80;;
64595;SDS011;51003;51.628;6.670;2023-04-16T00:22:13;16.00;;;7.70;;
64595;SDS011;51003;51.628;6.670;2023-04-16T00:24:39;15.10;;;7.40;;
64595;SDS011;51003;51.628;6.670;2023-04-16T00:27:05;21.93;;;7.23;;
64595;SDS011;51003;51.628;6.670;2023-04-16T00:29:30;18.63;;;8.20;;
64595;SDS011;51003;51.628;6.670;2023-04-16T00:31:57;22.53;;;7.77;;
64595;SDS011;51003;51.628;6.670;2023-04-16T00:34:23;17.10;;;7.60;;
64595;SDS011;51003;51.628;6.670;2023-04-16T00:36:48;14.00;;;7.40;;
64595;SDS011;51003;51.628;6.670;2023-04-16T00:39:13;20.13;;;8.07;;
64595;SDS011;51003;51.628;6.670;2023-04-16T00:41:39;24.63;;;8.30;;
64595;SDS011;51003;51.628;6.670;2023-04-16T00:44:05;17.70;;;7.50;;
64595;SDS011;51003;51.628;6.670;2023-04-16T00:46:30;20.07;;;7.90;;
64595;SDS011;51003;51.628;6.670;2023-04-16T00:48:56;16.93;;;8.17;;
64595;SDS011;51003;51.628;6.670;2023-04-16T00:51:22;17.33;;;8.40;;
64595;SDS011;51003;51.628;6.670;2023-04-16T00:53:47;17.83;;;8.20;;
64595;SDS011;51003;51.628;6.670;2023-04-16T00:56:13;20.97;;;9.27;;
64595;SDS011;51003;51.628;6.670;2023-04-16T00:58:39;22.40;;;8.97;;
64595;SDS011;51003;51.628;6.670;2023-04-16T01:01:04;15.30;;;8.77;;
64595;SDS011;51003;51.628;6.670;2023-04-16T01:03:36;22.37;;;9.53;;
64595;SDS011;51003;51.628;6.670;2023-04-16T01:06:03;22.87;;;9.50;;
64595;SDS011;51003;51.628;6.670;2023-04-16T01:08:29;30.03;;;10.07;;
64595;SDS011;51003;51.628;6.670;2023-04-16T01:10:55;16.83;;;8.83;;
64595;SDS011;51003;51.628;6.670;2023-04-16T01:13:20;20.50;;;9.43;;
64595;SDS011;51003;51.628;6.670;2023-04-16T01:15:46;19.90;;;9.93;;
64595;SDS011;51003;51.628;6.670;2023-04-16T01:18:12;23.53;;;9.70;;
64595;SDS011;51003;51.628;6.670;2023-04-16T01:20:42;22.20;;;10.30;;
64595;SDS011;51003;51.628;6.670;2023-04-16T01:23:07;26.10;;;10.43;;
64595;SDS011;51003;51.628;6.670;2023-04-16T01:25:32;23.43;;;9.80;;
64595;SDS011;51003;51.628;6.670;2023-04-16T01:27:58;31.60;;;10.90;;
64595;SDS011;51003;51.628;6.670;2023-04-16T01:30:24;20.90;;;9.93;;
64595;SDS011;51003;51.628;6.670;2023-04-16T01:32:49;21.50;;;9.73;;
64595;SDS011;51003;51.628;6.670;2023-04-16T01:35:15;30.17;;;11.90;;
64595;SDS011;51003;51.628;6.670;2023-04-16T01:37:42;32.57;;;11.73;;
64595;SDS011;51003;51.628;6.670;2023-04-16T01:40:08;22.20;;;10.73;;
64595;SDS011;51003;51.628;6.670;2023-04-16T01:42:34;24.93;;;11.00;;
64595;SDS011;51003;51.628;6.670;2023-04-16T01:45:00;35.43;;;11.70;;
64595;SDS011;51003;51.628;6.670;2023-04-16T01:47:26;23.57;;;10.80;;
64595;SDS011;51003;51.628;6.670;2023-04-16T01:49:51;27.87;;;11.43;;
64595;SDS011;51003;51.628;6.670;2023-04-16T01:52:17;29.87;;;11.50;;
64595;SDS011;51003;51.628;6.670;2023-04-16T01:54:43;27.63;;;11.43;;
64595;SDS011;51003;51.628;6.670;2023-04-16T01:57:09;24.83;;;11.30;;
64595;SDS011;51003;51.628;6.670;2023-04-16T01:59:35;31.80;;;12.17;;
64595;SDS011;51003;51.628;6.670;2023-04-16T02:02:02;26.83;;;12.57;;
64595;SDS011;51003;51.628;6.670;2023-04-16T02:04:40;32.77;;;11.70;;
64595;SDS011;51003;51.628;6.670;2023-04-16T02:07:09;25.87;;;12.37;;
64595;SDS011;51003;51.628;6.670;2023-04-16T02:09:35;23.40;;;12.10;;
64595;SDS011;51003;51.628;6.670;2023-04-16T02:12:02;27.47;;;11.93;;
64595;SDS011;51003;51.628;6.670;2023-04-16T02:14:28;29.90;;;12.90;;
64595;SDS011;51003;51.628;6.670;2023-04-16T02:16:53;27.93;;;12.70;;
64595;SDS011;51003;51.628;6.670;2023-04-16T02:19:19;32.97;;;12.70;;
64595;SDS011;51003;51.628;6.670;2023-04-16T02:21:45;31.23;;;12.80;;
64595;SDS011;51003;51.628;6.670;2023-04-16T02:24:11;25.43;;;12.37;;
64595;SDS011;51003;51.628;6.670;2023-04-16T02:26:37;28.80;;;12.30;;
64595;SDS011;51003;51.628;6.670;2023-04-16T02:29:03;25.40;;;12.03;;
64595;SDS011;51003;51.628;6.670;2023-04-16T02:31:28;28.07;;;12.27;;
64595;SDS011;51003;51.628;6.670;2023-04-16T02:33:54;26.50;;;12.37;;
64595;SDS011;51003;51.628;6.670;2023-04-16T02:36:20;31.93;;;12.87;;
64595;SDS011;51003;51.628;6.670;2023-04-16T02:38:46;25.70;;;12.90;;
64595;SDS011;51003;51.628;6.670;2023-04-16T02:41:11;29.60;;;12.50;;
64595;SDS011;51003;51.628;6.670;2023-04-16T02:43:37;28.47;;;12.33;;
64595;SDS011;51003;51.628;6.670;2023-04-16T02:46:02;29.63;;;12.10;;
64595;SDS011;51003;51.628;6.670;2023-04-16T02:48:28;26.30;;;12.43;;
64595;SDS011;51003;51.628;6.670;2023-04-16T02:50:53;32.20;;;12.57;;
64595;SDS011;51003;51.628;6.670;2023-04-16T02:53:19;24.37;;;12.17;;
64595;SDS011;51003;51.628;6.670;2023-04-16T02:55:55;24.53;;;11.83;;
64595;SDS011;51003;51.628;6.670;2023-04-16T02:58:21;30.20;;;12.00;;
64595;SDS011;51003;51.628;6.670;2023-04-16T03:00:48;24.10;;;12.93;;
64595;SDS011;51003;51.628;6.670;2023-04-16T03:03:13;31.00;;;13.50;;
64595;SDS011;51003;51.628;6.670;2023-04-16T03:05:39;24.77;;;12.83;;
64595;SDS011;51003;51.628;6.670;2023-04-16T03:08:04;29.43;;;13.17;;
64595;SDS011;51003;51.628;6.670;2023-04-16T03:10:31;31.60;;;13.47;;
64595;SDS011;51003;51.628;6.670;2023-04-16T03:12:56;35.57;;;12.50;;
64595;SDS011;51003;51.628;6.670;2023-04-16T03:15:22;26.60;;;12.30;;
64595;SDS011;51003;51.628;6.670;2023-04-16T03:17:48;26.07;;;13.10;;
64595;SDS011;51003;51.628;6.670;2023-04-16T03:20:13;31.43;;;13.17;;
64595;SDS011;51003;51.628;6.670;2023-04-16T03:22:41;26.47;;;12.63;;
64595;SDS011;51003;51.628;6.670;2023-04-16T03:25:06;33.93;;;14.00;;
64595;SDS011;51003;51.628;6.670;2023-04-16T03:27:33;32.23;;;13.27;;
64595;SDS011;51003;51.628;6.670;2023-04-16T03:29:59;26.10;;;13.00;;
64595;SDS011;51003;51.628;6.670;2023-04-16T03:32:25;33.20;;;13.30;;
64595;SDS011;51003;51.628;6.670;2023-04-16T03:34:50;27.40;;;14.07;;
64595;SDS011;51003;51.628;6.670;2023-04-16T03:37:16;29.10;;;14.23;;
64595;SDS011;51003;51.628;6.670;2023-04-16T03:39:41;30.20;;;13.33;;
64595;SDS011;51003;51.628;6.670;2023-04-16T03:42:07;33.40;;;14.70;;
64595;SDS011;51003;51.628;6.670;2023-04-16T03:44:32;31.00;;;14.70;;
64595;SDS011;51003;51.628;6.670;2023-04-16T03:46:58;34.83;;;13.90;;
64595;SDS011;51003;51.628;6.670;2023-04-16T03:49:23;30.70;;;14.63;;
64595;SDS011;51003;51.628;6.670;2023-04-16T03:51:49;39.43;;;14.80;;
64595;SDS011;51003;51.628;6.670;2023-04-16T03:54:15;34.03;;;15.43;;
64595;SDS011;51003;51.628;6.670;2023-04-16T03:56:41;32.47;;;16.20;;
64595;SDS011;51003;51.628;6.670;2023-04-16T03:59:07;32.00;;;14.47;;
64595;SDS011;51003;51.628;6.670;2023-04-16T04:01:33;32.33;;;16.20;;
64595;SDS011;51003;51.628;6.670;2023-04-16T04:03:59;29.73;;;14.60;;
64595;SDS011;51003;51.628;6.670;2023-04-16T04:06:24;37.40;;;16.23;;
64595;SDS011;51003;51.628;6.670;2023-04-16T04:08:50;31.27;;;15.80;;
64595;SDS011;51003;51.628;6.670;2023-04-16T04:11:15;36.27;;;15.00;;
64595;SDS011;51003;51.628;6.670;2023-04-16T04:13:41;33.33;;;15.53;;
64595;SDS011;51003;51.628;6.670;2023-04-16T04:16:07;38.30;;;16.07;;
64595;SDS011;51003;51.628;6.670;2023-04-16T04:18:32;29.23;;;15.20;;
64595;SDS011;51003;51.628;6.670;2023-04-16T04:20:57;37.07;;;15.40;;
64595;SDS011;51003;51.628;6.670;2023-04-16T04:23:23;31.30;;;14.80;;
64595;SDS011;51003;51.628;6.670;2023-04-16T04:25:48;31.80;;;15.00;;
64595;SDS011;51003;51.628;6.670;2023-04-16T04:28:14;31.33;;;15.10;;
64595;SDS011;51003;51.628;6.670;2023-04-16T04:30:40;37.50;;;15.30;;
64595;SDS011;51003;51.628;6.670;2023-04-16T04:33:05;29.90;;;15.00;;
64595;SDS011;51003;51.628;6.670;2023-04-16T04:35:31;32.77;;;14.50;;
64595;SDS011;51003;51.628;6.670;2023-04-16T04:37:57;41.00;;;15.97;;
64595;SDS011;51003;51.628;6.670;2023-04-16T04:40:22;36.30;;;15.60;;
64595;SDS011;51003;51.628;6.670;2023-04-16T04:42:48;32.93;;;16.30;;
64595;SDS011;51003;51.628;6.670;2023-04-16T04:45:13;33.37;;;15.50;;
64595;SDS011;51003;51.628;6.670;2023-04-16T04:47:39;34.20;;;15.00;;
64595;SDS011;51003;51.628;6.670;2023-04-16T04:50:05;34.87;;;16.00;;
64595;SDS011;51003;51.628;6.670;2023-04-16T04:52:32;39.87;;;16.00;;
64595;SDS011;51003;51.628;6.670;2023-04-16T04:54:58;36.50;;;17.53;;
64595;SDS011;51003;51.628;6.670;2023-04-16T04:57:23;38.03;;;16.67;;
64595;SDS011;51003;51.628;6.670;2023-04-16T04:59:49;34.73;;;15.70;;
64595;SDS011;51003;51.628;6.670;2023-04-16T05:02:15;31.37;;;15.40;;
64595;SDS011;51003;51.628;6.670;2023-04-16T05:04:40;36.73;;;17.47;;
64595;SDS011;51003;51.628;6.670;2023-04-16T05:07:05;32.83;;;16.10;;
64595;SDS011;51003;51.628;6.670;2023-04-16T05:09:31;36.53;;;16.70;;
64595;SDS011;51003;51.628;6.670;2023-04-16T05:11:57;30.37;;;14.90;;
64595;SDS011;51003;51.628;6.670;2023-04-16T05:14:22;37.10;;;15.20;;
64595;SDS011;51003;51.628;6.670;2023-04-16T05:16:48;31.23;;;15.90;;
64595;SDS011;51003;51.628;6.670;2023-04-16T05:19:15;28.60;;;15.37;;
64595;SDS011;51003;51.628;6.670;2023-04-16T05:21:40;26.73;;;14.43;;
64595;SDS011;51003;51.628;6.670;2023-04-16T05:24:06;30.20;;;15.13;;
64595;SDS011;51003;51.628;6.670;2023-04-16T05:26:32;32.37;;;16.30;;
64595;SDS011;51003;51.628;6.670;2023-04-16T05:28:58;28.60;;;15.60;;
64595;SDS011;51003;51.628;6.670;2023-04-16T05:31:23;28.53;;;14.43;;
64595;SDS011;51003;51.628;6.670;2023-04-16T05:33:48;29.93;;;15.37;;
64595;SDS011;51003;51.628;6.670;2023-04-16T05:36:14;28.03;;;14.23;;
64595;SDS011;51003;51.628;6.670;2023-04-16T05:38:40;31.33;;;15.00;;
64595;SDS011;51003;51.628;6.670;2023-04-16T05:41:06;28.60;;;14.10;;
64595;SDS011;51003;51.628;6.670;2023-04-16T05:43:32;24.93;;;13.67;;
64595;SDS011;51003;51.628;6.670;2023-04-16T05:45:57;25.43;;;13.73;;
64595;SDS011;51003;51.628;6.670;2023-04-16T05:48:23;26.83;;;14.50;;
64595;SDS011;51003;51.628;6.670;2023-04-16T05:50:48;27.00;;;14.37;;
64595;SDS011;51003;51.628;6.670;2023-04-16T05:53:14;30.60;;;14.43;;
64595;SDS011;51003;51.628;6.670;2023-04-16T05:55:40;28.93;;;14.27;;
64595;SDS011;51003;51.628;6.670;2023-04-16T05:58:06;29.57;;;15.37;;
64595;SDS011;51003;51.628;6.670;2023-04-16T06:00:32;25.30;;;14.50;;
64595;SDS011;51003;51.628;6.670;2023-04-16T06:02:57;24.50;;;13.73;;
64595;SDS011;51003;51.628;6.670;2023-04-16T06:05:24;28.33;;;14.20;;
64595;SDS011;51003;51.628;6.670;2023-04-16T06:07:50;30.43;;;15.10;;
64595;SDS011;51003;51.628;6.670;2023-04-16T06:10:16;32.77;;;15.10;;
64595;SDS011;51003;51.628;6.670;2023-04-16T06:12:41;29.40;;;14.20;;
64595;SDS011;51003;51.628;6.670;2023-04-16T06:15:06;29.10;;;15.40;;
64595;SDS011;51003;51.628;6.670;2023-04-16T06:17:34;31.43;;;16.07;;
64595;SDS011;51003;51.628;6.670;2023-04-16T06:20:00;29.90;;;16.17;;
64595;SDS011;51003;51.628;6.670;2023-04-16T06:22:25;27.50;;;14.80;;
64595;SDS011;51003;51.628;6.670;2023-04-16T06:24:51;29.03;;;15.13;;
64595;SDS011;51003;51.628;6.670;2023-04-16T06:27:17;32.00;;;16.50;;
64595;SDS011;51003;51.628;6.670;2023-04-16T06:29:42;31.70;;;15.93;;
64595;SDS011;51003;51.628;6.670;2023-04-16T08:10:08;40.83;;;21.47;;
64595;SDS011;51003;51.628;6.670;2023-04-16T08:12:34;38.87;;;19.80;;
64595;SDS011;51003;51.628;6.670;2023-04-16T08:14:59;40.83;;;19.70;;
64595;SDS011;51003;51.628;6.670;2023-04-16T08:17:25;35.30;;;17.97;;
64595;SDS011;51003;51.628;6.670;2023-04-16T08:19:52;37.77;;;19.13;;
64595;SDS011;51003;51.628;6.670;2023-04-16T08:22:18;32.80;;;18.90;;
64595;SDS011;51003;51.628;6.670;2023-04-16T08:24:43;33.80;;;18.77;;
64595;SDS011;51003;51.628;6.670;2023-04-16T08:27:08;32.83;;;17.87;;
64595;SDS011;51003;51.628;6.670;2023-04-16T08:29:35;29.27;;;17.40;;
64595;SDS011;51003;51.628;6.670;2023-04-16T08:32:01;30.83;;;18.37;;
64595;SDS011;51003;51.628;6.670;2023-04-16T08:34:26;34.57;;;18.80;;
64595;SDS011;51003;51.628;6.670;2023-04-16T08:36:51;32.10;;;18.43;;
64595;SDS011;51003;51.628;6.670;2023-04-16T08:39:17;29.83;;;18.43;;
64595;SDS011;51003;51.628;6.670;2023-04-16T08:52:30;28.73;;;16.80;;
64595;SDS011;51003;51.628;6.670;2023-04-16T08:55:11;31.13;;;17.10;;
64595;SDS011;51003;51.628;6.670;2023-04-16T08:57:38;28.00;;;17.27;;
64595;SDS011;51003;51.628;6.670;2023-04-16T09:00:09;28.97;;;17.40;;
64595;SDS011;51003;51.628;6.670;2023-04-16T09:02:35;30.60;;;18.03;;
64595;SDS011;51003;51.628;6.670;2023-04-16T09:05:00;31.30;;;17.37;;
64595;SDS011;51003;51.628;6.670;2023-04-16T09:07:28;28.03;;;17.67;;
64595;SDS011;51003;51.628;6.670;2023-04-16T09:09:55;30.87;;;16.90;;
64595;SDS011;51003;51.628;6.670;2023-04-16T09:12:25;26.90;;;16.80;;
64595;SDS011;51003;51.628;6.670;2023-04-16T09:14:50;28.90;;;16.83;;
64595;SDS011;51003;51.628;6.670;2023-04-16T09:17:16;27.97;;;16.67;;
64595;SDS011;51003;51.628;6.670;2023-04-16T09:19:43;28.23;;;16.43;;
64595;SDS011;51003;51.628;6.670;2023-04-16T09:22:08;24.13;;;15.97;;
64595;SDS011;51003;51.628;6.670;2023-04-16T09:24:34;25.93;;;16.07;;
64595;SDS011;51003;51.628;6.670;2023-04-16T09:26:59;29.20;;;16.90;;
64595;SDS011;51003;51.628;6.670;2023-04-16T09:29:32;27.10;;;17.07;;
64595;SDS011;51003;51.628;6.670;2023-04-16T09:32:02;31.60;;;17.93;;
64595;SDS011;51003;51.628;6.670;2023-04-16T09:34:28;24.83;;;16.67;;
64595;SDS011;51003;51.628;6.670;2023-04-16T09:37:01;31.10;;;18.30;;
64595;SDS011;51003;51.628;6.670;2023-04-16T09:39:38;27.87;;;17.47;;
64595;SDS011;51003;51.628;6.670;2023-04-16T09:42:04;27.90;;;17.93;;
64595;SDS011;51003;51.628;6.670;2023-04-16T09:44:33;25.73;;;16.87;;
64595;SDS011;51003;51.628;6.670;2023-04-16T09:47:03;26.50;;;17.17;;
64595;SDS011;51003;51.628;6.670;2023-04-16T09:49:32;26.10;;;16.57;;
64595;SDS011;51003;51.628;6.670;2023-04-16T09:51:59;25.53;;;16.63;;
64595;SDS011;51003;51.628;6.670;2023-04-16T09:54:24;27.33;;;17.60;;
64595;SDS011;51003;51.628;6.670;2023-04-16T09:56:50;23.03;;;16.00;;
64595;SDS011;51003;51.628;6.670;2023-04-16T09:59:16;21.70;;;15.47;;
64595;SDS011;51003;51.628;6.670;2023-04-16T10:01:42;25.23;;;15.37;;
64595;SDS011;51003;51.628;6.670;2023-04-16T10:04:10;21.13;;;16.10;;
64595;SDS011;51003;51.628;6.670;2023-04-16T10:06:35;21.20;;;15.53;;
64595;SDS011;51003;51.628;6.670;2023-04-16T10:09:01;20.03;;;16.03;;
64595;SDS011;51003;51.628;6.670;2023-04-16T10:11:31;22.37;;;16.20;;
64595;SDS011;51003;51.628;6.670;2023-04-16T10:13:57;19.97;;;15.37;;
64595;SDS011;51003;51.628;6.670;2023-04-16T10:16:22;20.37;;;14.53;;
64595;SDS011;51003;51.628;6.670;2023-04-16T10:18:48;17.80;;;14.30;;
64595;SDS011;51003;51.628;6.670;2023-04-16T10:21:13;20.67;;;15.13;;
64595;SDS011;51003;51.628;6.670;2023-04-16T10:23:40;21.13;;;15.30;;
64595;SDS011;51003;51.628;6.670;2023-04-16T10:26:06;19.43;;;14.13;;
64595;SDS011;51003;51.628;6.670;2023-04-16T10:28:32;20.53;;;14.53;;
64595;SDS011;51003;51.628;6.670;2023-04-16T10:30:59;16.93;;;13.50;;
64595;SDS011;51003;51.628;6.670;2023-04-16T10:33:26;21.40;;;14.37;;
64595;SDS011;51003;51.628;6.670;2023-04-16T10:36:13;19.30;;;13.50;;
64595;SDS011;51003;51.628;6.670;2023-04-16T10:38:49;20.80;;;13.47;;
64595;SDS011;51003;51.628;6.670;2023-04-16T10:41:16;19.10;;;13.03;;
64595;SDS011;51003;51.628;6.670;2023-04-16T10:43:45;17.60;;;13.60;;
64595;SDS011;51003;51.628;6.670;2023-04-16T10:46:24;16.33;;;12.90;;
64595;SDS011;51003;51.628;6.670;2023-04-16T10:48:54;18.27;;;13.80;;
64595;SDS011;51003;51.628;6.670;2023-04-16T10:51:31;17.50;;;12.80;;
64595;SDS011;51003;51.628;6.670;2023-04-16T10:54:01;17.70;;;12.90;;
64595;SDS011;51003;51.628;6.670;2023-04-16T10:56:27;13.73;;;11.47;;
64595;SDS011;51003;51.628;6.670;2023-04-16T10:58:54;17.40;;;12.33;;
64595;SDS011;51003;51.628;6.670;2023-04-16T11:01:26;17.53;;;12.63;;
64595;SDS011;51003;51.628;6.670;2023-04-16T11:03:55;18.00;;;12.73;;
64595;SDS011;51003;51.628;6.670;2023-04-16T11:06:24;15.70;;;12.53;;
64595;SDS011;51003;51.628;6.670;2023-04-16T11:08:51;18.50;;;13.00;;
64595;SDS011;51003;51.628;6.670;2023-04-16T11:11:19;17.43;;;12.20;;
64595;SDS011;51003;51.628;6.670;2023-04-16T11:13:45;16.60;;;12.70;;
64595;SDS011;51003;51.628;6.670;2023-04-16T11:16:12;17.10;;;12.43;;
64595;SDS011;51003;51.628;6.670;2023-04-16T11:18:38;21.33;;;12.30;;
64595;SDS011;51003;51.628;6.670;2023-04-16T11:21:08;20.10;;;12.87;;
64595;SDS011;51003;51.628;6.670;2023-04-16T11:23:44;16.60;;;13.30;;
64595;SDS011;51003;51.628;6.670;2023-04-16T11:26:50;16.60;;;13.33;;
64595;SDS011;51003;51.628;6.670;2023-04-16T11:29:14;17.47;;;12.80;;
64595;SDS011;51003;51.628;6.670;2023-04-16T11:31:40;17.80;;;14.00;;
64595;SDS011;51003;51.628;6.670;2023-04-16T11:34:08;19.33;;;14.47;;
64595;SDS011;51003;51.628;6.670;2023-04-16T11:36:44;16.30;;;13.27;;
64595;SDS011;51003;51.628;6.670;2023-04-16T11:39:10;19.03;;;13.93;;
64595;SDS011;51003;51.628;6.670;2023-04-16T11:41:46;18.23;;;13.83;;
64595;SDS011;51003;51.628;6.670;2023-04-16T11:44:19;16.30;;;13.10;;
64595;SDS011;51003;51.628;6.670;2023-04-16T11:46:45;22.17;;;14.20;;
64595;SDS011;51003;51.628;6.670;2023-04-16T11:49:11;17.83;;;13.73;;
64595;SDS011;51003;51.628;6.670;2023-04-16T11:51:40;17.90;;;13.70;;
64595;SDS011;51003;51.628;6.670;2023-04-16T11:54:06;19.10;;;14.60;;
64595;SDS011;51003;51.628;6.670;2023-04-16T11:56:33;17.00;;;13.40;;
64595;SDS011;51003;51.628;6.670;2023-04-16T12:01:32;16.43;;;13.43;;
64595;SDS011;51003;51.628;6.670;2023-04-16T12:04:02;20.53;;;13.93;;
64595;SDS011;51003;51.628;6.670;2023-04-16T12:06:28;19.77;;;14.70;;
64595;SDS011;51003;51.628;6.670;2023-04-16T12:08:53;19.20;;;14.00;;
64595;SDS011;51003;51.628;6.670;2023-04-16T12:11:19;15.53;;;13.13;;
64595;SDS011;51003;51.628;6.670;2023-04-16T12:16:36;19.17;;;14.80;;
64595;SDS011;51003;51.628;6.670;2023-04-16T12:19:02;17.33;;;14.00;;
64595;SDS011;51003;51.628;6.670;2023-04-16T12:21:35;15.83;;;12.60;;
64595;SDS011;51003;51.628;6.670;2023-04-16T12:24:04;15.77;;;13.60;;
64595;SDS011;51003;51.628;6.670;2023-04-16T12:26:40;17.30;;;13.97;;
64595;SDS011;51003;51.628;6.670;2023-04-16T12:29:17;16.90;;;14.40;;
64595;SDS011;51003;51.628;6.670;2023-04-16T12:31:44;16.57;;;14.33;;
64595;SDS011;51003;51.628;6.670;2023-04-16T12:34:10;16.40;;;13.70;;
64595;SDS011;51003;51.628;6.670;2023-04-16T12:36:36;18.83;;;14.53;;
64595;SDS011;51003;51.628;6.670;2023-04-16T12:39:02;16.93;;;13.60;;
64595;SDS011;51003;51.628;6.670;2023-04-16T12:41:28;17.30;;;13.73;;
64595;SDS011;51003;51.628;6.670;2023-04-16T12:44:10;16.93;;;13.60;;
64595;SDS011;51003;51.628;6.670;2023-04-16T12:46:37;18.37;;;14.23;;
64595;SDS011;51003;51.628;6.670;2023-04-16T12:49:03;16.73;;;13.97;;
64595;SDS011;51003;51.628;6.670;2023-04-16T12:51:30;22.63;;;12.93;;
64595;SDS011;51003;51.628;6.670;2023-04-16T12:53:55;17.07;;;13.63;;
64595;SDS011;51003;51.628;6.670;2023-04-16T12:56:21;15.53;;;13.07;;
64595;SDS011;51003;51.628;6.670;2023-04-16T12:58:47;18.43;;;13.80;;
64595;SDS011;51003;51.628;6.670;2023-04-16T13:01:15;18.10;;;14.10;;
64595;SDS011;51003;51.628;6.670;2023-04-16T13:03:42;17.63;;;13.97;;
64595;SDS011;51003;51.628;6.670;2023-04-16T13:06:08;16.80;;;13.77;;
64595;SDS011;51003;51.628;6.670;2023-04-16T13:08:33;20.57;;;14.47;;
64595;SDS011;51003;51.628;6.670;2023-04-16T13:10:59;17.17;;;14.33;;
64595;SDS011;51003;51.628;6.670;2023-04-16T13:13:25;19.03;;;14.60;;
64595;SDS011;51003;51.628;6.670;2023-04-16T13:15:51;20.00;;;14.63;;
64595;SDS011;51003;51.628;6.670;2023-04-16T13:18:17;19.80;;;13.80;;
64595;SDS011;51003;51.628;6.670;2023-04-16T13:20:42;17.30;;;12.87;;
64595;SDS011;51003;51.628;6.670;2023-04-16T13:23:08;21.80;;;13.83;;
64595;SDS011;51003;51.628;6.670;2023-04-16T13:25:34;19.10;;;13.57;;
64595;SDS011;51003;51.628;6.670;2023-04-16T13:27:59;19.53;;;14.27;;
64595;SDS011;51003;51.628;6.670;2023-04-16T13:30:25;24.07;;;13.60;;
64595;SDS011;51003;51.628;6.670;2023-04-16T13:32:53;16.83;;;13.70;;
64595;SDS011;51003;51.628;6.670;2023-04-16T13:35:18;16.23;;;12.90;;
64595;SDS011;51003;51.628;6.670;2023-04-16T13:37:44;18.77;;;14.30;;
64595;SDS011;51003;51.628;6.670;2023-04-16T13:40:09;20.13;;;14.67;;
64595;SDS011;51003;51.628;6.670;2023-04-16T13:42:35;21.50;;;15.03;;
64595;SDS011;51003;51.628;6.670;2023-04-16T13:45:00;18.63;;;14.43;;
64595;SDS011;51003;51.628;6.670;2023-04-16T13:47:26;14.17;;;12.50;;
64595;SDS011;51003;51.628;6.670;2023-04-16T13:49:51;19.17;;;13.50;;
64595;SDS011;51003;51.628;6.670;2023-04-16T13:52:17;17.90;;;13.30;;
64595;SDS011;51003;51.628;6.670;2023-04-16T13:54:42;21.63;;;13.23;;
64595;SDS011;51003;51.628;6.670;2023-04-16T13:57:08;16.40;;;13.63;;
64595;SDS011;51003;51.628;6.670;2023-04-16T13:59:33;18.63;;;13.60;;
64595;SDS011;51003;51.628;6.670;2023-04-16T14:01:58;16.20;;;12.90;;
64595;SDS011;51003;51.628;6.670;2023-04-16T14:04:24;18.80;;;13.87;;
64595;SDS011;51003;51.628;6.670;2023-04-16T14:06:49;22.33;;;12.90;;
64595;SDS011;51003;51.628;6.670;2023-04-16T14:09:14;19.40;;;13.00;;
64595;SDS011;51003;51.628;6.670;2023-04-16T14:11:40;17.87;;;13.80;;
64595;SDS011;51003;51.628;6.670;2023-04-16T14:14:05;16.63;;;13.10;;
64595;SDS011;51003;51.628;6.670;2023-04-16T14:16:31;18.20;;;14.43;;
64595;SDS011;51003;51.628;6.670;2023-04-16T14:18:56;16.80;;;14.10;;
64595;SDS011;51003;51.628;6.670;2023-04-16T14:21:21;16.57;;;13.10;;
64595;SDS011;51003;51.628;6.670;2023-04-16T14:23:47;17.03;;;13.23;;
64595;SDS011;51003;51.628;6.670;2023-04-16T14:26:12;19.03;;;14.57;;
64595;SDS011;51003;51.628;6.670;2023-04-16T14:28:38;18.60;;;13.70;;
64595;SDS011;51003;51.628;6.670;2023-04-16T14:31:05;17.70;;;12.90;;
64595;SDS011;51003;51.628;6.670;2023-04-16T14:33:30;17.93;;;12.80;;
64595;SDS011;51003;51.628;6.670;2023-04-16T14:35:56;15.40;;;12.97;;
64595;SDS011;51003;51.628;6.670;2023-04-16T14:38:21;18.67;;;12.90;;
64595;SDS011;51003;51.628;6.670;2023-04-16T14:40:47;15.97;;;12.87;;
64595;SDS011;51003;51.628;6.670;2023-04-16T14:43:12;17.90;;;12.57;;
64595;SDS011;51003;51.628;6.670;2023-04-16T14:45:38;18.20;;;13.67;;
64595;SDS011;51003;51.628;6.670;2023-04-16T14:48:03;16.10;;;12.97;;
64595;SDS011;51003;51.628;6.670;2023-04-16T14:50:30;16.63;;;12.93;;
64595;SDS011;51003;51.628;6.670;2023-04-16T14:52:55;16.97;;;13.00;;
64595;SDS011;51003;51.628;6.670;2023-04-16T14:55:21;15.63;;;12.73;;
64595;SDS011;51003;51.628;6.670;2023-04-16T14:57:46;17.80;;;12.10;;
64595;SDS011;51003;51.628;6.670;2023-04-16T15:00:13;19.80;;;13.27;;
64595;SDS011;51003;51.628;6.670;2023-04-16T15:02:42;17.50;;;13.60;;
64595;SDS011;51003;51.628;6.670;2023-04-16T15:05:08;16.73;;;13.30;;
64595;SDS011;51003;51.628;6.670;2023-04-16T15:07:34;16.70;;;12.90;;
64595;SDS011;51003;51.628;6.670;2023-04-16T15:10:00;15.93;;;12.60;;
64595;SDS011;51003;51.628;6.670;2023-04-16T15:12:25;17.57;;;12.80;;
64595;SDS011;51003;51.628;6.670;2023-04-16T15:14:51;15.40;;;12.33;;
64595;SDS011;51003;51.628;6.670;2023-04-16T15:17:16;15.00;;;11.70;;
64595;SDS011;51003;51.628;6.670;2023-04-16T15:19:42;16.40;;;12.40;;
64595;SDS011;51003;51.628;6.670;2023-04-16T15:22:07;19.37;;;13.60;;
64595;SDS011;51003;51.628;6.670;2023-04-16T15:24:32;16.27;;;12.03;;
64595;SDS011;51003;51.628;6.670;2023-04-16T15:26:58;23.33;;;13.80;;
64595;SDS011;51003;51.628;6.670;2023-04-16T15:29:23;26.33;;;15.70;;
64595;SDS011;51003;51.628;6.670;2023-04-16T15:31:49;24.70;;;14.30;;
64595;SDS011;51003;51.628;6.670;2023-04-16T15:34:14;27.67;;;16.23;;
64595;SDS011;51003;51.628;6.670;2023-04-16T15:36:40;27.87;;;14.40;;
64595;SDS011;51003;51.628;6.670;2023-04-16T15:39:06;22.13;;;15.37;;
64595;SDS011;51003;51.628;6.670;2023-04-16T15:41:32;23.37;;;14.50;;
64595;SDS011;51003;51.628;6.670;2023-04-16T15:43:59;23.73;;;14.80;;
64595;SDS011;51003;51.628;6.670;2023-04-16T15:46:25;23.97;;;14.50;;
64595;SDS011;51003;51.628;6.670;2023-04-16T15:48:50;28.73;;;15.93;;
64595;SDS011;51003;51.628;6.670;2023-04-16T15:51:15;24.63;;;14.70;;
64595;SDS011;51003;51.628;6.670;2023-04-16T15:53:41;25.57;;;17.03;;
64595;SDS011;51003;51.628;6.670;2023-04-16T15:56:08;24.33;;;15.80;;
64595;SDS011;51003;51.628;6.670;2023-04-16T15:58:34;28.80;;;16.47;;
64595;SDS011;51003;51.628;6.670;2023-04-16T16:00:59;26.13;;;15.70;;
64595;SDS011;51003;51.628;6.670;2023-04-16T16:03:24;31.93;;;16.57;;
64595;SDS011;51003;51.628;6.670;2023-04-16T16:05:50;30.50;;;16.93;;
64595;SDS011;51003;51.628;6.670;2023-04-16T16:08:15;27.60;;;16.33;;
64595;SDS011;51003;51.628;6.670;2023-04-16T16:10:41;33.70;;;17.80;;
64595;SDS011;51003;51.628;6.670;2023-04-16T16:13:06;31.40;;;17.30;;